sensor_id;sensor_type;location;lat;lon;timestamp;temperature;humidity
28189;DHT22;15471;51.166;4.470;2022-08-19T04:16:22;16.90;99.90
28189;DHT22;15471;51.166;4.470;2022-08-19T04:18:49;16.90;99.90
28189;DHT22;15471;51.166;4.470;2022-08-19T04:21:17;16.80;99.90
28189;DHT22;15471;51.166;4.470;2022-08-19T04:23:44;16.90;99.90
28189;DHT22;15471;51.166;4.470;2022-08-19T04:26:19;16.80;99.90
28189;DHT22;15471;51.166;4.470;2022-08-19T04:28:46;16.80;99.90
28189;DHT22;15471;51.166;4.470;2022-08-19T04:31:17;16.80;99.90
28189;DHT22;15471;51.166;4.470;2022-08-19T04:33:43;16.80;99.90
28189;DHT22;15471;51.166;4.470;2022-08-19T04:36:20;16.80;99.90
28189;DHT22;15471;51.166;4.470;2022-08-19T04:38:48;16.80;99.90
28189;DHT22;15471;51.166;4.470;2022-08-19T04:41:14;16.70;99.90
28189;DHT22;15471;51.166;4.470;2022-08-19T04:44:06;16.70;99.90
28189;DHT22;15471;51.166;4.470;2022-08-19T04:46:33;16.70;99.90
28189;DHT22;15471;51.166;4.470;2022-08-19T04:49:00;16.70;99.90
28189;DHT22;15471;51.166;4.470;2022-08-19T04:51:26;16.70;99.90
28189;DHT22;15471;51.166;4.470;2022-08-19T04:53:52;16.70;99.90
28189;DHT22;15471;51.166;4.470;2022-08-19T04:56:20;16.80;99.90
28189;DHT22;15471;51.166;4.470;2022-08-19T04:58:47;16.80;99.90
28189;DHT22;15471;51.166;4.470;2022-08-19T05:01:17;16.80;99.90
28189;DHT22;15471;51.166;4.470;2022-08-19T05:03:43;16.80;99.90
28189;DHT22;15471;51.166;4.470;2022-08-19T05:06:11;16.90;99.90
28189;DHT22;15471;51.166;4.470;2022-08-19T05:08:39;16.90;99.90
28189;DHT22;15471;51.166;4.470;2022-08-19T05:11:13;17.00;99.90
28189;DHT22;15471;51.166;4.470;2022-08-19T05:13:39;17.10;99.90
28189;DHT22;15471;51.166;4.470;2022-08-19T05:16:05;17.00;99.90
28189;DHT22;15471;51.166;4.470;2022-08-19T05:18:30;17.10;99.90
28189;DHT22;15471;51.166;4.470;2022-08-19T05:21:19;17.10;99.90
28189;DHT22;15471;51.166;4.470;2022-08-19T05:24:05;17.10;99.90
28189;DHT22;15471;51.166;4.470;2022-08-19T05:26:37;17.20;99.90
28189;DHT22;15471;51.166;4.470;2022-08-19T05:29:04;17.10;99.90
28189;DHT22;15471;51.166;4.470;2022-08-19T05:31:30;17.10;99.90
28189;DHT22;15471;51.166;4.470;2022-08-19T05:33:57;17.10;99.90
28189;DHT22;15471;51.166;4.470;2022-08-19T05:36:27;17.20;99.90
28189;DHT22;15471;51.166;4.470;2022-08-19T05:38:53;17.20;99.90
28189;DHT22;15471;51.166;4.470;2022-08-19T05:41:20;17.30;99.90
28189;DHT22;15471;51.166;4.470;2022-08-19T05:43:52;17.30;99.90
28189;DHT22;15471;51.166;4.470;2022-08-19T05:46:19;17.30;99.90
28189;DHT22;15471;51.166;4.470;2022-08-19T05:48:45;17.30;99.90
28189;DHT22;15471;51.166;4.470;2022-08-19T05:51:11;17.30;99.90
28189;DHT22;15471;51.166;4.470;2022-08-19T05:53:37;17.30;99.90
28189;DHT22;15471;51.166;4.470;2022-08-19T05:56:13;17.40;99.90
28189;DHT22;15471;51.166;4.470;2022-08-19T05:58:42;17.40;99.90
28189;DHT22;15471;51.166;4.470;2022-08-19T06:01:13;17.50;99.90
28189;DHT22;15471;51.166;4.470;2022-08-19T06:03:39;17.60;99.90
28189;DHT22;15471;51.166;4.470;2022-08-19T06:06:07;17.70;99.90
28189;DHT22;15471;51.166;4.470;2022-08-19T06:08:34;17.90;99.90
28189;DHT22;15471;51.166;4.470;2022-08-19T06:13:43;18.20;99.90
28189;DHT22;15471;51.166;4.470;2022-08-19T06:16:10;18.40;99.90
28189;DHT22;15471;51.166;4.470;2022-08-19T06:18:36;18.40;99.90
28189;DHT22;15471;51.166;4.470;2022-08-19T06:21:02;18.40;99.90
28189;DHT22;15471;51.166;4.470;2022-08-19T06:23:29;18.50;99.90
28189;DHT22;15471;51.166;4.470;2022-08-19T06:25:56;18.60;99.90
28189;DHT22;15471;51.166;4.470;2022-08-19T06:28:22;18.60;99.90
28189;DHT22;15471;51.166;4.470;2022-08-19T06:30:49;18.70;99.90
28189;DHT22;15471;51.166;4.470;2022-08-19T06:33:16;18.70;99.90
28189;DHT22;15471;51.166;4.470;2022-08-19T06:35:42;18.80;99.90
28189;DHT22;15471;51.166;4.470;2022-08-19T06:38:08;18.80;99.90
28189;DHT22;15471;51.166;4.470;2022-08-19T06:40:35;18.90;99.90
28189;DHT22;15471;51.166;4.470;2022-08-19T06:43:03;18.90;99.90
28189;DHT22;15471;51.166;4.470;2022-08-19T06:45:28;18.80;99.90
28189;DHT22;15471;51.166;4.470;2022-08-19T06:47:56;18.80;99.90
28189;DHT22;15471;51.166;4.470;2022-08-19T06:50:23;18.90;99.90
28189;DHT22;15471;51.166;4.470;2022-08-19T06:52:49;18.90;99.90
28189;DHT22;15471;51.166;4.470;2022-08-19T06:55:15;19.00;99.90
28189;DHT22;15471;51.166;4.470;2022-08-19T06:57:42;18.90;99.90
28189;DHT22;15471;51.166;4.470;2022-08-19T07:00:09;18.90;99.90
28189;DHT22;15471;51.166;4.470;2022-08-19T07:02:41;18.90;99.90
28189;DHT22;15471;51.166;4.470;2022-08-19T07:05:07;19.10;99.90
28189;DHT22;15471;51.166;4.470;2022-08-19T07:07:33;19.20;99.90
28189;DHT22;15471;51.166;4.470;2022-08-19T07:10:00;19.20;99.90
28189;DHT22;15471;51.166;4.470;2022-08-19T07:12:30;19.40;99.90
28189;DHT22;15471;51.166;4.470;2022-08-19T07:15:00;19.60;99.90
28189;DHT22;15471;51.166;4.470;2022-08-19T07:17:27;19.60;99.90
28189;DHT22;15471;51.166;4.470;2022-08-19T07:19:53;19.60;99.90
28189;DHT22;15471;51.166;4.470;2022-08-19T07:22:21;19.90;99.90
28189;DHT22;15471;51.166;4.470;2022-08-19T07:24:50;19.90;99.90
28189;DHT22;15471;51.166;4.470;2022-08-19T07:27:16;19.90;99.90
28189;DHT22;15471;51.166;4.470;2022-08-19T07:29:42;19.80;99.90
28189;DHT22;15471;51.166;4.470;2022-08-19T07:32:08;19.70;99.90
28189;DHT22;15471;51.166;4.470;2022-08-19T07:34:34;19.80;99.90
28189;DHT22;15471;51.166;4.470;2022-08-19T07:37:05;19.80;99.90
28189;DHT22;15471;51.166;4.470;2022-08-19T07:39:35;19.90;99.90
28189;DHT22;15471;51.166;4.470;2022-08-19T07:42:05;19.90;99.90
28189;DHT22;15471;51.166;4.470;2022-08-19T07:44:32;19.90;99.90
28189;DHT22;15471;51.166;4.470;2022-08-19T07:47:00;20.00;99.90
28189;DHT22;15471;51.166;4.470;2022-08-19T07:49:26;20.10;99.90
28189;DHT22;15471;51.166;4.470;2022-08-19T07:51:58;20.10;99.90
28189;DHT22;15471;51.166;4.470;2022-08-19T07:54:28;20.20;99.90
28189;DHT22;15471;51.166;4.470;2022-08-19T07:56:54;20.40;99.90
28189;DHT22;15471;51.166;4.470;2022-08-19T07:59:21;20.60;99.90
28189;DHT22;15471;51.166;4.470;2022-08-19T08:01:47;20.60;99.90
28189;DHT22;15471;51.166;4.470;2022-08-19T08:04:14;20.50;99.90
28189;DHT22;15471;51.166;4.470;2022-08-19T08:06:58;20.50;99.90
28189;DHT22;15471;51.166;4.470;2022-08-19T08:09:43;20.60;99.90
28189;DHT22;15471;51.166;4.470;2022-08-19T08:12:13;20.70;99.90
28189;DHT22;15471;51.166;4.470;2022-08-19T08:14:51;20.90;99.90
28189;DHT22;15471;51.166;4.470;2022-08-19T08:17:19;21.00;99.90
28189;DHT22;15471;51.166;4.470;2022-08-19T08:19:46;20.90;99.90
28189;DHT22;15471;51.166;4.470;2022-08-19T08:22:16;20.80;99.90
28189;DHT22;15471;51.166;4.470;2022-08-19T08:27:39;21.00;99.90
28189;DHT22;15471;51.166;4.470;2022-08-19T08:30:12;21.20;99.90
28189;DHT22;15471;51.166;4.470;2022-08-19T08:32:40;21.40;99.90
28189;DHT22;15471;51.166;4.470;2022-08-19T08:35:08;21.60;99.90
28189;DHT22;15471;51.166;4.470;2022-08-19T08:37:35;21.60;99.90
28189;DHT22;15471;51.166;4.470;2022-08-19T08:42:43;21.50;99.90
28189;DHT22;15471;51.166;4.470;2022-08-19T08:45:13;21.60;99.90
28189;DHT22;15471;51.166;4.470;2022-08-19T08:47:44;21.50;99.90
28189;DHT22;15471;51.166;4.470;2022-08-19T08:52:52;21.70;99.90
28189;DHT22;15471;51.166;4.470;2022-08-19T08:55:23;21.80;99.90
28189;DHT22;15471;51.166;4.470;2022-08-19T08:58:27;21.80;99.90
28189;DHT22;15471;51.166;4.470;2022-08-19T09:00:51;21.50;99.90
28189;DHT22;15471;51.166;4.470;2022-08-19T09:03:26;21.40;99.90
28189;DHT22;15471;51.166;4.470;2022-08-19T09:06:11;21.40;99.90
28189;DHT22;15471;51.166;4.470;2022-08-19T09:08:45;21.50;99.90
28189;DHT22;15471;51.166;4.470;2022-08-19T09:16:34;21.60;99.90
28189;DHT22;15471;51.166;4.470;2022-08-19T09:19:04;21.60;99.90
28189;DHT22;15471;51.166;4.470;2022-08-19T09:21:30;21.60;99.90
28189;DHT22;15471;51.166;4.470;2022-08-19T09:23:56;21.70;99.90
28189;DHT22;15471;51.166;4.470;2022-08-19T09:26:24;21.90;99.90
28189;DHT22;15471;51.166;4.470;2022-08-19T09:28:52;22.00;99.90
28189;DHT22;15471;51.166;4.470;2022-08-19T09:31:22;21.90;99.90
28189;DHT22;15471;51.166;4.470;2022-08-19T09:33:48;22.10;99.90
28189;DHT22;15471;51.166;4.470;2022-08-19T09:36:17;22.10;99.90
28189;DHT22;15471;51.166;4.470;2022-08-19T09:38:44;22.20;99.90
28189;DHT22;15471;51.166;4.470;2022-08-19T09:41:13;22.10;99.90
28189;DHT22;15471;51.166;4.470;2022-08-19T09:43:40;22.00;99.90
28189;DHT22;15471;51.166;4.470;2022-08-19T09:46:07;21.90;99.90
28189;DHT22;15471;51.166;4.470;2022-08-19T09:48:38;21.80;99.90
28189;DHT22;15471;51.166;4.470;2022-08-19T09:51:09;21.80;99.90
28189;DHT22;15471;51.166;4.470;2022-08-19T09:53:37;21.60;99.90
28189;DHT22;15471;51.166;4.470;2022-08-19T09:56:06;21.50;99.90
28189;DHT22;15471;51.166;4.470;2022-08-19T09:58:33;21.80;99.90
28189;DHT22;15471;51.166;4.470;2022-08-19T10:01:05;22.00;99.90
28189;DHT22;15471;51.166;4.470;2022-08-19T10:03:33;22.20;99.90
28189;DHT22;15471;51.166;4.470;2022-08-19T10:06:04;22.40;99.90
28189;DHT22;15471;51.166;4.470;2022-08-19T10:08:35;22.50;99.90
28189;DHT22;15471;51.166;4.470;2022-08-19T10:11:03;22.30;99.90
28189;DHT22;15471;51.166;4.470;2022-08-19T10:13:31;22.00;99.90
28189;DHT22;15471;51.166;4.470;2022-08-19T10:16:05;22.00;99.90
28189;DHT22;15471;51.166;4.470;2022-08-19T10:18:32;22.00;99.90
28189;DHT22;15471;51.166;4.470;2022-08-19T10:21:21;22.10;99.90
28189;DHT22;15471;51.166;4.470;2022-08-19T10:23:50;22.30;99.90
28189;DHT22;15471;51.166;4.470;2022-08-19T10:26:27;22.30;99.90
28189;DHT22;15471;51.166;4.470;2022-08-19T10:28:53;22.20;99.90
28189;DHT22;15471;51.166;4.470;2022-08-19T10:31:27;22.00;99.90
28189;DHT22;15471;51.166;4.470;2022-08-19T10:33:54;22.00;99.90
28189;DHT22;15471;51.166;4.470;2022-08-19T10:36:26;22.10;99.90
28189;DHT22;15471;51.166;4.470;2022-08-19T10:39:02;22.30;99.90
28189;DHT22;15471;51.166;4.470;2022-08-19T10:41:31;22.30;99.90
28189;DHT22;15471;51.166;4.470;2022-08-19T10:44:03;22.20;99.90
28189;DHT22;15471;51.166;4.470;2022-08-19T10:46:37;22.10;99.90
28189;DHT22;15471;51.166;4.470;2022-08-19T10:49:06;22.20;99.90
28189;DHT22;15471;51.166;4.470;2022-08-19T10:51:32;22.20;99.90
28189;DHT22;15471;51.166;4.470;2022-08-19T10:54:19;22.10;99.90
28189;DHT22;15471;51.166;4.470;2022-08-19T10:56:46;22.00;99.90
28189;DHT22;15471;51.166;4.470;2022-08-19T10:59:27;22.10;99.90
28189;DHT22;15471;51.166;4.470;2022-08-19T11:01:59;22.30;99.90
28189;DHT22;15471;51.166;4.470;2022-08-19T11:04:26;22.40;99.90
28189;DHT22;15471;51.166;4.470;2022-08-19T11:06:52;22.30;99.90
28189;DHT22;15471;51.166;4.470;2022-08-19T11:09:21;22.10;99.90
28189;DHT22;15471;51.166;4.470;2022-08-19T11:11:50;22.20;99.90
28189;DHT22;15471;51.166;4.470;2022-08-19T11:14:18;22.10;99.90
28189;DHT22;15471;51.166;4.470;2022-08-19T13:36:30;26.70;99.90
28189;DHT22;15471;51.166;4.470;2022-08-19T13:38:56;27.00;99.90
28189;DHT22;15471;51.166;4.470;2022-08-19T13:41:22;27.10;99.90
28189;DHT22;15471;51.166;4.470;2022-08-19T13:43:47;27.10;99.90
28189;DHT22;15471;51.166;4.470;2022-08-19T13:46:15;26.90;99.90
28189;DHT22;15471;51.166;4.470;2022-08-19T13:48:41;27.00;99.90
28189;DHT22;15471;51.166;4.470;2022-08-19T13:51:08;27.30;99.90
28189;DHT22;15471;51.166;4.470;2022-08-19T13:53:38;27.30;99.90
28189;DHT22;15471;51.166;4.470;2022-08-19T13:56:11;27.50;99.90
28189;DHT22;15471;51.166;4.470;2022-08-19T15:16:55;20.60;99.90
28189;DHT22;15471;51.166;4.470;2022-08-19T15:19:21;20.40;99.90
28189;DHT22;15471;51.166;4.470;2022-08-19T15:21:46;20.20;99.90
28189;DHT22;15471;51.166;4.470;2022-08-19T15:24:12;20.20;99.90
28189;DHT22;15471;51.166;4.470;2022-08-19T15:26:38;20.30;99.90
28189;DHT22;15471;51.166;4.470;2022-08-19T15:29:04;20.30;99.90
28189;DHT22;15471;51.166;4.470;2022-08-19T15:31:30;20.40;99.90
28189;DHT22;15471;51.166;4.470;2022-08-19T15:34:02;20.50;99.90
28189;DHT22;15471;51.166;4.470;2022-08-19T15:36:28;20.70;99.90
28189;DHT22;15471;51.166;4.470;2022-08-19T15:38:55;20.80;99.90
28189;DHT22;15471;51.166;4.470;2022-08-19T15:41:27;21.00;99.90
28189;DHT22;15471;51.166;4.470;2022-08-19T15:44:10;21.80;99.90
28189;DHT22;15471;51.166;4.470;2022-08-19T15:46:38;22.40;99.90
28189;DHT22;15471;51.166;4.470;2022-08-19T15:49:06;23.00;99.90
28189;DHT22;15471;51.166;4.470;2022-08-19T15:51:34;23.30;99.90
28189;DHT22;15471;51.166;4.470;2022-08-19T15:54:03;23.50;99.90
28189;DHT22;15471;51.166;4.470;2022-08-19T15:56:29;24.30;99.90
28189;DHT22;15471;51.166;4.470;2022-08-19T15:59:13;25.50;99.90
28189;DHT22;15471;51.166;4.470;2022-08-19T16:01:57;26.30;99.90
28189;DHT22;15471;51.166;4.470;2022-08-19T16:04:41;26.10;99.90
28189;DHT22;15471;51.166;4.470;2022-08-19T16:07:25;25.70;99.90
28189;DHT22;15471;51.166;4.470;2022-08-19T16:09:51;26.00;99.90
28189;DHT22;15471;51.166;4.470;2022-08-19T16:12:17;26.50;99.90
28189;DHT22;15471;51.166;4.470;2022-08-19T16:14:43;27.00;99.90
28189;DHT22;15471;51.166;4.470;2022-08-19T16:17:09;27.10;99.90
28189;DHT22;15471;51.166;4.470;2022-08-19T16:19:37;28.80;99.90
28189;DHT22;15471;51.166;4.470;2022-08-19T16:22:03;29.80;99.90
28189;DHT22;15471;51.166;4.470;2022-08-19T16:24:30;29.60;99.90
28189;DHT22;15471;51.166;4.470;2022-08-19T16:26:58;28.20;99.90
28189;DHT22;15471;51.166;4.470;2022-08-19T16:29:26;26.80;99.90
28189;DHT22;15471;51.166;4.470;2022-08-19T16:31:52;25.90;99.90
28189;DHT22;15471;51.166;4.470;2022-08-19T16:34:20;25.60;99.90
28189;DHT22;15471;51.166;4.470;2022-08-19T16:36:46;25.80;99.90
28189;DHT22;15471;51.166;4.470;2022-08-19T16:39:13;26.00;99.90
28189;DHT22;15471;51.166;4.470;2022-08-19T16:41:41;26.20;99.90
28189;DHT22;15471;51.166;4.470;2022-08-19T16:44:09;26.40;99.90
28189;DHT22;15471;51.166;4.470;2022-08-19T16:46:36;27.60;99.90
28189;DHT22;15471;51.166;4.470;2022-08-19T16:49:04;29.40;99.90
28189;DHT22;15471;51.166;4.470;2022-08-19T16:51:30;29.50;99.90
28189;DHT22;15471;51.166;4.470;2022-08-19T16:53:59;28.10;99.90
28189;DHT22;15471;51.166;4.470;2022-08-19T16:56:26;27.10;99.90
28189;DHT22;15471;51.166;4.470;2022-08-19T16:58:53;26.20;99.90
28189;DHT22;15471;51.166;4.470;2022-08-19T17:01:20;25.50;99.90
28189;DHT22;15471;51.166;4.470;2022-08-19T17:03:46;24.80;99.90
28189;DHT22;15471;51.166;4.470;2022-08-19T17:06:23;24.10;99.90
28189;DHT22;15471;51.166;4.470;2022-08-19T17:08:53;23.60;99.90
28189;DHT22;15471;51.166;4.470;2022-08-19T17:11:20;23.30;99.90
28189;DHT22;15471;51.166;4.470;2022-08-19T17:13:47;23.10;99.90
28189;DHT22;15471;51.166;4.470;2022-08-19T17:16:16;23.10;99.90
28189;DHT22;15471;51.166;4.470;2022-08-19T17:18:41;23.00;99.90
28189;DHT22;15471;51.166;4.470;2022-08-19T17:21:07;22.80;99.90
28189;DHT22;15471;51.166;4.470;2022-08-19T17:23:33;22.70;99.90
28189;DHT22;15471;51.166;4.470;2022-08-19T17:26:00;22.60;99.90
28189;DHT22;15471;51.166;4.470;2022-08-19T17:28:28;22.60;99.90
28189;DHT22;15471;51.166;4.470;2022-08-19T17:30:54;22.50;99.90
28189;DHT22;15471;51.166;4.470;2022-08-19T17:33:21;22.40;99.90
28189;DHT22;15471;51.166;4.470;2022-08-19T17:35:47;22.30;99.90
28189;DHT22;15471;51.166;4.470;2022-08-19T17:38:17;22.30;99.90
28189;DHT22;15471;51.166;4.470;2022-08-19T17:40:43;22.30;99.90
28189;DHT22;15471;51.166;4.470;2022-08-19T17:43:11;22.30;99.90
28189;DHT22;15471;51.166;4.470;2022-08-19T17:45:39;22.30;99.90
28189;DHT22;15471;51.166;4.470;2022-08-19T17:48:05;22.20;99.90
28189;DHT22;15471;51.166;4.470;2022-08-19T17:50:31;22.20;99.90
28189;DHT22;15471;51.166;4.470;2022-08-19T17:52:58;22.10;99.90
28189;DHT22;15471;51.166;4.470;2022-08-19T17:55:25;22.10;99.90
28189;DHT22;15471;51.166;4.470;2022-08-19T17:57:51;22.00;99.90
28189;DHT22;15471;51.166;4.470;2022-08-19T18:00:18;21.90;99.90
28189;DHT22;15471;51.166;4.470;2022-08-19T18:02:58;21.80;99.90
28189;DHT22;15471;51.166;4.470;2022-08-19T18:05:28;21.80;99.90
28189;DHT22;15471;51.166;4.470;2022-08-19T18:07:56;21.70;99.90
28189;DHT22;15471;51.166;4.470;2022-08-19T18:10:24;21.70;99.90
28189;DHT22;15471;51.166;4.470;2022-08-19T18:12:51;21.60;99.90
28189;DHT22;15471;51.166;4.470;2022-08-19T18:15:18;21.60;99.90
28189;DHT22;15471;51.166;4.470;2022-08-19T18:17:45;21.60;99.90
28189;DHT22;15471;51.166;4.470;2022-08-19T18:20:13;21.60;99.90
28189;DHT22;15471;51.166;4.470;2022-08-19T18:22:43;21.50;99.90
28189;DHT22;15471;51.166;4.470;2022-08-19T18:27:44;21.40;99.90
28189;DHT22;15471;51.166;4.470;2022-08-19T18:30:11;21.30;99.90
28189;DHT22;15471;51.166;4.470;2022-08-19T18:32:38;21.30;99.90
28189;DHT22;15471;51.166;4.470;2022-08-19T18:35:14;21.20;99.90
28189;DHT22;15471;51.166;4.470;2022-08-19T18:37:46;21.20;99.90
28189;DHT22;15471;51.166;4.470;2022-08-19T18:40:19;21.20;99.90
28189;DHT22;15471;51.166;4.470;2022-08-19T18:43:05;21.20;99.90
28189;DHT22;15471;51.166;4.470;2022-08-19T18:45:40;21.30;99.90
28189;DHT22;15471;51.166;4.470;2022-08-19T18:48:25;21.30;99.90
28189;DHT22;15471;51.166;4.470;2022-08-19T18:51:14;21.30;99.90
28189;DHT22;15471;51.166;4.470;2022-08-19T18:53:42;21.20;99.90
28189;DHT22;15471;51.166;4.470;2022-08-19T18:56:10;21.20;99.90
28189;DHT22;15471;51.166;4.470;2022-08-19T18:58:38;21.10;99.90
28189;DHT22;15471;51.166;4.470;2022-08-19T19:01:24;21.10;99.90
28189;DHT22;15471;51.166;4.470;2022-08-19T19:03:52;21.20;99.90
28189;DHT22;15471;51.166;4.470;2022-08-19T19:06:26;21.10;99.90
28189;DHT22;15471;51.166;4.470;2022-08-19T19:08:53;21.20;99.90
28189;DHT22;15471;51.166;4.470;2022-08-19T19:11:30;21.10;99.90
28189;DHT22;15471;51.166;4.470;2022-08-19T19:13:57;21.10;99.90
28189;DHT22;15471;51.166;4.470;2022-08-19T19:16:27;21.00;99.90
28189;DHT22;15471;51.166;4.470;2022-08-19T19:18:54;21.00;99.90
28189;DHT22;15471;51.166;4.470;2022-08-19T19:21:21;21.10;99.90
28189;DHT22;15471;51.166;4.470;2022-08-19T19:23:52;21.10;99.90
28189;DHT22;15471;51.166;4.470;2022-08-19T19:26:19;21.10;99.90
28189;DHT22;15471;51.166;4.470;2022-08-19T19:28:48;21.10;99.90
28189;DHT22;15471;51.166;4.470;2022-08-19T19:31:21;21.00;99.90
28189;DHT22;15471;51.166;4.470;2022-08-19T19:33:49;21.00;99.90
28189;DHT22;15471;51.166;4.470;2022-08-19T19:36:16;21.00;99.90
28189;DHT22;15471;51.166;4.470;2022-08-19T19:38:42;20.90;99.90
28189;DHT22;15471;51.166;4.470;2022-08-19T19:41:10;21.00;99.90
28189;DHT22;15471;51.166;4.470;2022-08-19T19:43:35;21.00;99.90
28189;DHT22;15471;51.166;4.470;2022-08-19T19:46:04;21.00;99.90
28189;DHT22;15471;51.166;4.470;2022-08-19T19:48:30;20.90;99.90
28189;DHT22;15471;51.166;4.470;2022-08-19T19:50:57;20.90;99.90
28189;DHT22;15471;51.166;4.470;2022-08-19T19:53:26;20.90;99.90
28189;DHT22;15471;51.166;4.470;2022-08-19T19:55:54;20.90;99.90
28189;DHT22;15471;51.166;4.470;2022-08-19T19:58:31;20.90;99.90
28189;DHT22;15471;51.166;4.470;2022-08-19T20:00:58;20.90;99.90
28189;DHT22;15471;51.166;4.470;2022-08-19T20:03:25;20.80;99.90
28189;DHT22;15471;51.166;4.470;2022-08-19T20:05:51;20.80;99.90
28189;DHT22;15471;51.166;4.470;2022-08-19T20:08:17;20.80;99.90
28189;DHT22;15471;51.166;4.470;2022-08-19T20:11:04;20.80;99.90
28189;DHT22;15471;51.166;4.470;2022-08-19T20:13:30;20.80;99.90
28189;DHT22;15471;51.166;4.470;2022-08-19T20:15:57;20.80;99.90
28189;DHT22;15471;51.166;4.470;2022-08-19T20:18:22;20.90;99.90
28189;DHT22;15471;51.166;4.470;2022-08-19T20:20:49;20.90;99.90
28189;DHT22;15471;51.166;4.470;2022-08-19T20:23:20;20.90;99.90
28189;DHT22;15471;51.166;4.470;2022-08-19T20:25:48;21.00;99.90
28189;DHT22;15471;51.166;4.470;2022-08-19T20:28:21;20.90;99.90
28189;DHT22;15471;51.166;4.470;2022-08-19T20:30:53;20.80;99.90
28189;DHT22;15471;51.166;4.470;2022-08-19T20:33:26;20.80;99.90
28189;DHT22;15471;51.166;4.470;2022-08-19T20:36:21;20.80;99.90
28189;DHT22;15471;51.166;4.470;2022-08-19T20:39:48;20.80;99.90
28189;DHT22;15471;51.166;4.470;2022-08-19T22:12:05;19.60;99.90
28189;DHT22;15471;51.166;4.470;2022-08-19T22:45:24;19.30;99.90
28189;DHT22;15471;51.166;4.470;2022-08-19T23:43:16;18.90;99.90
28189;DHT22;15471;51.166;4.470;2022-08-19T23:55:46;18.70;99.90
